Annis, ID

12:28 PM MDT on October 31, 2014 (GMT -0600)
Garfield Area | Change Station
CLOSE
Current Station
Personal Weather Station
Location: Rigby, ID
Elevation: 4820 ft
Nearby Weather Stations
Active Advisory: Special Statement Active Notice: Record Report

Elev 4820 ft 43.64 °N, 111.96 °W | Updated 2 minutes ago

Clear
Clear
63.2 °F
Feels Like 63.2 °F
N
7.0
Wind Variable Wind from SSW
Gusts 10.0 mph

Today
High -- | Low -- °F
--% Chance of Precip.
Yesterday
High -- | Low -- °F
Precip. -- in
8:02 AM 6:19 PM
First Quarter, 57% visible
Pressure 29.92 in
Visibility 10.0 miles
Clouds Clear
Dew Point 36 °F
Humidity 36%
Rainfall 0.00 in
Snow Depth Not available.
UV 3 out of 12
Pollen 2.80 out of 12
Air Quality Not available.
Flu Activity Not available.
METAR KRXE 311753Z AUTO 00000KT 10SM CLR 15/01 A2996 RMK AO2 SLP131 T01500011 10150 20011 58012

More Conditions Fewer Conditions

Pressure 29.92 in
Visibility 10.0 miles
Clouds Clear
Dew Point 36 °F
Humidity 36%
Rainfall 0.00 in
Snow Depth Not available.
UV 3 out of 12
Pollen 2.80 out of 12
Air Quality Not available.
Flu Activity Not available.
METAR KRXE 311753Z AUTO 00000KT 10SM CLR 15/01 A2996 RMK AO2 SLP131 T01500011 10150 20011 58012

More Conditions Fewer Conditions

10-Day Weather Forecast

Almanac

Astronomy

Oct. 31, 2014 Rise Set
Actual Time
Civil Twilight
Nautical Twilight
Astronomical Twilight
Moon
Length of Visible Light
Length of Day
Tomorrow will be .
, % of the Moon is Illuminated

Today's Extremes

State Highs State Lows

Community

WunderPhotos

Upload Photos

1,766,686 photos uploaded!

WunderBlogs® & News

Nearby

Air Quality

  Air Quality AQ Index Pollutant
Not available.

Snow Depth

Station Depth Elevation

Earthquake Activity

City Distance Mag. Time & Date
Minimum magnitude displayed is 2.5.

Coastal Water Temperatures

Place Temperature

Nearby Weather Stations